createdAt,value
2018-01-12T00:00:17.485Z,11.37
2018-01-12T00:02:47.629Z,12.73
2018-01-12T00:05:22.577Z,12.83
2018-01-12T00:07:56.892Z,13.87
2018-01-12T00:10:24.786Z,13.40
2018-01-12T00:12:53.464Z,12.47
2018-01-12T00:15:21.092Z,15.03
2018-01-12T00:17:58.337Z,15.17
2018-01-12T00:20:35.876Z,13.63
2018-01-12T00:23:04.644Z,14.10
2018-01-12T00:25:34.416Z,17.70
2018-01-12T00:28:04.491Z,19.80
2018-01-12T00:30:33.106Z,16.13
2018-01-12T00:33:03.092Z,17.73
2018-01-12T00:35:32.760Z,19.20
2018-01-12T00:38:01.293Z,18.17
2018-01-12T00:40:36.692Z,16.67
2018-01-12T00:43:06.685Z,13.00
2018-01-12T00:45:34.349Z,12.60
2018-01-12T00:48:01.977Z,12.80
2018-01-12T00:50:30.799Z,11.37
2018-01-12T00:52:59.578Z,9.87
2018-01-12T00:55:28.151Z,10.37
2018-01-12T00:57:58.776Z,9.80
2018-01-12T01:00:26.478Z,10.10
2018-01-12T01:05:44.659Z,10.27
2018-01-12T01:08:13.080Z,10.23
2018-01-12T01:10:41.484Z,8.27
2018-01-12T01:13:12.254Z,8.70
2018-01-12T01:15:40.651Z,9.70
2018-01-12T01:18:08.968Z,9.30
2018-01-12T01:20:36.561Z,9.27
2018-01-12T01:25:38.141Z,10.60
2018-01-12T01:28:06.910Z,11.07
2018-01-12T01:30:34.523Z,12.50
2018-01-12T01:33:02.918Z,10.03
2018-01-12T01:35:30.520Z,9.70
2018-01-12T01:37:58.107Z,11.17
2018-01-12T01:40:25.645Z,11.87
2018-01-12T01:42:55.551Z,11.70
2018-01-12T01:45:24.302Z,11.30
2018-01-12T01:47:51.892Z,12.33
2018-01-12T01:50:19.486Z,11.20
2018-01-12T01:52:49.201Z,11.37
2018-01-12T01:55:18.479Z,11.97
2018-01-12T01:57:46.053Z,10.63
2018-01-12T02:00:14.906Z,10.90
2018-01-12T02:02:43.118Z,9.90
2018-01-12T02:05:15.068Z,9.30
2018-01-12T02:07:42.755Z,8.40
2018-01-12T02:10:11.434Z,8.87
2018-01-12T02:12:39.021Z,12.40
2018-01-12T02:15:06.596Z,10.00
2018-01-12T02:17:34.222Z,9.33
2018-01-12T02:20:02.570Z,10.67
2018-01-12T02:22:30.161Z,10.23
2018-01-12T02:24:59.057Z,11.67
2018-01-12T02:27:28.284Z,11.93
2018-01-12T02:29:55.847Z,12.33
2018-01-12T02:32:24.290Z,10.67
2018-01-12T02:34:53.287Z,11.30
2018-01-12T02:37:23.240Z,9.37
2018-01-12T02:39:50.869Z,10.77
2018-01-12T02:42:19.280Z,11.67
2018-01-12T02:44:50.569Z,10.20
2018-01-12T02:47:18.226Z,9.57
2018-01-12T02:49:45.827Z,8.60
2018-01-12T02:52:14.143Z,9.17
2018-01-12T02:54:43.092Z,8.40
2018-01-12T02:57:10.754Z,9.63
2018-01-12T02:59:40.278Z,10.10
2018-01-12T03:02:08.654Z,10.30
2018-01-12T03:04:37.401Z,9.63
2018-01-12T03:07:05.009Z,9.83
2018-01-12T03:09:36.340Z,10.80
2018-01-12T03:12:04.714Z,10.73
2018-01-12T03:14:33.651Z,11.00
2018-01-12T03:17:01.266Z,10.17
2018-01-12T03:19:39.630Z,9.90
2018-01-12T03:22:07.218Z,13.80
2018-01-12T03:24:37.270Z,12.67
2018-01-12T03:27:05.012Z,15.70
2018-01-12T03:32:08.740Z,27.87
2018-01-12T03:34:38.041Z,12.90
2018-01-12T03:37:06.519Z,21.33
2018-01-12T03:39:35.054Z,15.47
2018-01-12T03:42:02.704Z,14.70
2018-01-12T03:44:30.921Z,13.30
2018-01-12T03:46:59.233Z,14.17
2018-01-12T03:49:26.859Z,12.30
2018-01-12T03:51:54.505Z,12.90
2018-01-12T03:54:22.186Z,10.17
2018-01-12T03:56:49.890Z,14.00
2018-01-12T03:59:18.386Z,12.07
2018-01-12T04:01:46.817Z,11.67
2018-01-12T04:04:20.312Z,12.60
2018-01-12T04:06:48.035Z,12.73
2018-01-12T04:09:15.630Z,11.10
2018-01-12T04:11:44.032Z,11.40
2018-01-12T04:14:12.514Z,9.40
2018-01-12T04:16:41.059Z,11.00
2018-01-12T04:19:08.695Z,11.03
2018-01-12T04:21:36.329Z,11.47
2018-01-12T04:24:05.398Z,10.50
2018-01-12T04:26:32.960Z,10.77
2018-01-12T04:29:01.806Z,9.50
2018-01-12T04:31:29.391Z,8.43
2018-01-12T04:33:57.019Z,9.20
2018-01-12T04:36:24.619Z,7.37
2018-01-12T04:39:15.141Z,7.90
2018-01-12T04:41:42.817Z,6.90
2018-01-12T04:44:12.069Z,8.30
2018-01-12T04:46:51.823Z,8.07
2018-01-12T04:49:20.645Z,7.13
2018-01-12T04:51:52.617Z,6.53
2018-01-12T04:54:21.837Z,8.53
2018-01-12T04:56:50.176Z,7.50
2018-01-12T04:59:19.047Z,7.20
2018-01-12T05:01:50.958Z,6.77
2018-01-12T05:04:31.647Z,7.73
2018-01-12T05:07:00.694Z,7.00
2018-01-12T05:09:29.126Z,6.63
2018-01-12T05:11:58.145Z,7.53
2018-01-12T05:14:29.483Z,6.27
2018-01-12T05:16:58.643Z,7.13
2018-01-12T05:19:28.297Z,6.50
2018-01-12T05:21:57.378Z,5.87
2018-01-12T05:24:31.322Z,5.67
2018-01-12T05:27:00.713Z,6.33
2018-01-12T05:32:12.306Z,6.60
2018-01-12T05:34:46.128Z,6.30
2018-01-12T05:37:16.332Z,5.67
2018-01-12T05:39:52.394Z,7.00
2018-01-12T05:42:21.845Z,7.50
2018-01-12T05:44:57.522Z,9.50
2018-01-12T05:47:27.189Z,7.73
2018-01-12T05:49:55.525Z,9.20
2018-01-12T05:52:41.008Z,8.70
2018-01-12T05:55:09.242Z,9.20
2018-01-12T05:57:37.446Z,7.03
2018-01-12T06:00:07.679Z,6.30
2018-01-12T06:05:49.882Z,6.47
2018-01-12T06:08:19.248Z,6.87
2018-01-12T06:10:47.597Z,9.13
2018-01-12T06:13:15.700Z,8.70
2018-01-12T06:15:44.022Z,6.73
2018-01-12T06:18:12.385Z,6.20
2018-01-12T06:20:41.823Z,6.80
2018-01-12T06:23:14.620Z,6.77
2018-01-12T06:25:42.212Z,8.07
2018-01-12T06:28:09.756Z,6.63
2018-01-12T06:30:40.746Z,5.80
2018-01-12T06:33:09.412Z,8.50
2018-01-12T06:35:48.780Z,6.80
2018-01-12T06:38:16.291Z,7.50
2018-01-12T06:40:44.634Z,8.37
2018-01-12T06:43:12.220Z,6.90
2018-01-12T06:46:03.103Z,7.97
2018-01-12T06:48:36.343Z,8.90
2018-01-12T06:51:09.802Z,9.47
2018-01-12T07:02:53.149Z,5.83
2018-01-12T07:05:30.287Z,5.27
2018-01-12T07:08:03.729Z,5.40
2018-01-12T07:10:36.179Z,5.50
2018-01-12T07:13:07.621Z,5.90
2018-01-12T07:15:36.638Z,5.50
2018-01-12T07:18:04.256Z,5.40
2018-01-12T07:20:43.455Z,5.80
2018-01-12T07:23:23.011Z,6.70
2018-01-12T07:25:50.605Z,6.23
2018-01-12T07:28:18.937Z,6.50
2018-01-12T07:30:46.498Z,6.10
2018-01-12T07:33:14.016Z,6.47
2018-01-12T07:38:15.410Z,6.40
2018-01-12T07:40:42.960Z,8.27
2018-01-12T07:43:10.528Z,7.13
2018-01-12T07:45:38.109Z,6.37
2018-01-12T07:48:17.111Z,7.03
2018-01-12T07:50:45.608Z,7.23
2018-01-12T07:53:18.874Z,8.10
2018-01-12T07:55:47.297Z,7.80
2018-01-12T07:58:19.940Z,6.43
2018-01-12T08:00:53.126Z,8.27
2018-01-12T08:03:25.259Z,7.70
2018-01-12T08:05:53.634Z,7.27
2018-01-12T08:08:21.966Z,7.20
2018-01-12T08:10:49.644Z,7.57
2018-01-12T08:13:17.399Z,9.30
2018-01-12T08:15:45.280Z,7.63
2018-01-12T08:18:12.930Z,8.90
2018-01-12T08:20:40.537Z,8.00
2018-01-12T08:23:08.957Z,7.70
2018-01-12T08:25:36.574Z,10.30
2018-01-12T08:28:04.908Z,11.20
2018-01-12T08:30:34.810Z,10.20
2018-01-12T08:33:05.179Z,9.40
2018-01-12T08:35:37.118Z,7.97
2018-01-12T08:38:08.724Z,8.83
2018-01-12T08:40:41.741Z,7.17
2018-01-12T08:43:21.635Z,9.20
2018-01-12T08:45:58.905Z,9.33
2018-01-12T08:48:33.104Z,8.53
2018-01-12T08:51:00.650Z,8.03
2018-01-12T08:53:28.173Z,10.30
2018-01-12T08:55:55.645Z,9.20
2018-01-12T08:58:23.142Z,9.57
2018-01-12T09:00:50.616Z,8.73
2018-01-12T09:03:18.110Z,9.00
2018-01-12T09:05:45.614Z,9.50
2018-01-12T09:08:13.873Z,10.80
2018-01-12T09:10:41.353Z,9.90
2018-01-12T09:13:20.577Z,9.63
2018-01-12T09:15:48.079Z,9.83
2018-01-12T09:18:27.397Z,9.43
2018-01-12T09:20:54.903Z,11.00
2018-01-12T09:23:29.247Z,10.40
2018-01-12T09:25:56.734Z,9.77
2018-01-12T09:28:24.226Z,10.20
2018-01-12T09:30:51.710Z,10.00
2018-01-12T09:33:19.214Z,9.77
2018-01-12T09:35:46.717Z,10.40
2018-01-12T09:38:22.085Z,9.57
2018-01-12T09:40:49.555Z,11.63
2018-01-12T09:43:17.055Z,11.50
2018-01-12T09:45:44.565Z,9.70
2018-01-12T09:48:25.890Z,10.77
2018-01-12T09:50:53.372Z,10.37
2018-01-12T09:53:20.906Z,9.90
2018-01-12T09:55:49.232Z,11.13
2018-01-12T09:58:16.724Z,11.70
2018-01-12T10:01:05.849Z,9.10
2018-01-12T10:03:34.068Z,10.00
2018-01-12T10:06:01.570Z,9.53
2018-01-12T10:08:29.062Z,8.90
2018-01-12T10:10:56.570Z,9.03
2018-01-12T10:13:24.828Z,8.83
2018-01-12T10:15:52.313Z,8.03
2018-01-12T10:18:19.868Z,9.80
2018-01-12T10:20:48.111Z,8.80
2018-01-12T10:23:15.656Z,8.90
2018-01-12T10:25:43.148Z,9.00
2018-01-12T10:28:11.393Z,9.60
2018-01-12T10:33:56.377Z,8.87
2018-01-12T10:39:28.418Z,8.30
2018-01-12T10:42:05.537Z,9.67
2018-01-12T10:44:33.116Z,10.13
2018-01-12T10:47:12.453Z,9.80
2018-01-12T10:49:39.952Z,10.73
2018-01-12T10:52:08.278Z,10.33
2018-01-12T10:54:35.793Z,10.30
2018-01-12T10:57:03.274Z,10.30
2018-01-12T10:59:30.774Z,11.27
2018-01-12T11:01:58.276Z,10.00
2018-01-12T11:04:25.771Z,10.20
2018-01-12T11:06:53.257Z,10.73
2018-01-12T11:09:21.517Z,10.73
2018-01-12T11:11:49.002Z,10.73
2018-01-12T11:14:17.293Z,10.63
2018-01-12T11:16:44.796Z,10.53
2018-01-12T11:19:12.270Z,10.83
2018-01-12T11:21:39.760Z,11.90
2018-01-12T11:24:07.345Z,10.20
2018-01-12T11:26:34.846Z,9.60
2018-01-12T11:29:02.549Z,10.43
2018-01-12T11:31:30.063Z,10.80
2018-01-12T11:33:57.555Z,11.97
2018-01-12T11:36:25.816Z,10.73
2018-01-12T11:38:53.304Z,11.70
2018-01-12T11:41:20.793Z,9.87
2018-01-12T11:43:48.343Z,10.60
2018-01-12T11:46:16.561Z,9.77
2018-01-12T11:48:44.076Z,10.40
2018-01-12T11:51:11.594Z,10.77
2018-01-12T11:53:39.059Z,10.60
2018-01-12T11:56:06.622Z,9.90
2018-01-12T11:58:34.849Z,10.37
2018-01-12T12:01:02.423Z,10.90
2018-01-12T12:03:30.888Z,9.00
2018-01-12T12:05:58.447Z,10.63
2018-01-12T12:08:26.005Z,11.30
2018-01-12T12:10:53.574Z,9.67
2018-01-12T13:24:57.839Z,13.73
2018-01-12T13:27:25.440Z,12.07
2018-01-12T13:30:36.935Z,14.77
2018-01-12T13:33:33.846Z,13.00
2018-01-12T13:36:13.800Z,12.10
2018-01-12T13:38:51.002Z,13.73
2018-01-12T13:41:33.296Z,13.07
2018-01-12T13:47:25.072Z,13.23
2018-01-12T13:50:17.803Z,14.60
2018-01-12T13:52:51.509Z,14.60
2018-01-12T13:55:25.533Z,13.77
2018-01-12T13:57:53.097Z,31.13
2018-01-12T14:00:21.537Z,14.30
2018-01-12T14:02:49.109Z,13.90
2018-01-12T14:05:20.990Z,15.33
2018-01-12T14:07:49.015Z,13.47
2018-01-12T14:10:16.737Z,15.63
2018-01-12T14:12:56.103Z,15.57
2018-01-12T14:18:15.047Z,14.73
2018-01-12T14:20:47.083Z,17.93
2018-01-12T14:23:15.370Z,20.60
2018-01-12T14:25:42.916Z,18.90
2018-01-12T14:28:10.646Z,17.93
2018-01-12T14:30:38.223Z,15.73
2018-01-12T14:33:05.748Z,13.77
2018-01-12T14:35:33.317Z,12.47
2018-01-12T14:38:01.585Z,13.40
2018-01-12T14:40:29.151Z,14.10
2018-01-12T14:42:56.721Z,15.50
2018-01-12T14:45:27.035Z,14.83
2018-01-12T14:47:54.613Z,14.47
2018-01-12T14:50:22.201Z,15.53
2018-01-12T14:52:49.765Z,13.80
2018-01-12T14:55:18.114Z,14.80
2018-01-12T14:57:45.721Z,15.67
2018-01-12T15:02:50.088Z,14.53
2018-01-12T15:05:18.778Z,14.60
2018-01-12T15:08:00.601Z,15.60
2018-01-12T15:10:28.281Z,15.70
2018-01-12T15:15:43.660Z,14.83
2018-01-12T15:18:16.764Z,15.13
2018-01-12T15:20:51.987Z,15.97
2018-01-12T15:23:23.324Z,14.60
2018-01-12T15:25:55.497Z,15.07
2018-01-12T15:31:25.028Z,14.83
2018-01-12T15:33:53.345Z,13.07
2018-01-12T15:36:37.379Z,16.03
2018-01-12T15:42:23.514Z,13.83
2018-01-12T16:21:07.211Z,18.17
2018-01-12T16:23:42.572Z,17.13
2018-01-12T16:26:12.218Z,18.00
2018-01-12T16:28:39.702Z,17.90
2018-01-12T16:31:07.194Z,19.00
2018-01-12T16:33:35.428Z,17.10
2018-01-12T16:36:18.750Z,19.30
2018-01-12T16:38:46.944Z,17.60
2018-01-12T16:41:36.523Z,18.37
2018-01-12T16:44:05.022Z,18.80
2018-01-12T16:46:32.650Z,18.67
2018-01-12T16:49:00.957Z,18.60
2018-01-12T16:51:29.293Z,18.07
2018-01-12T16:53:56.863Z,16.90
2018-01-12T16:56:24.381Z,18.57
2018-01-12T16:58:51.929Z,17.80
2018-01-12T17:01:19.444Z,15.03
2018-01-12T17:03:47.130Z,17.73
2018-01-12T17:06:15.471Z,19.10
2018-01-12T17:08:43.068Z,17.00
2018-01-12T17:11:11.413Z,17.77
2018-01-12T17:13:39.032Z,17.80
2018-01-12T17:16:07.328Z,15.80
2018-01-12T17:18:34.809Z,17.97
2018-01-12T17:21:02.293Z,15.03
2018-01-12T17:23:29.854Z,16.13
2018-01-12T17:25:57.358Z,18.23
2018-01-12T17:28:24.856Z,17.67
2018-01-12T17:30:52.353Z,16.00
2018-01-12T17:33:20.602Z,15.83
2018-01-12T17:35:48.083Z,16.13
2018-01-12T17:38:16.348Z,21.00
2018-01-12T17:40:43.925Z,20.03
2018-01-12T17:43:12.181Z,17.03
2018-01-12T17:45:39.648Z,18.70
2018-01-12T17:48:07.952Z,17.20
2018-01-12T17:50:35.482Z,19.50
2018-01-12T17:53:03.753Z,18.10
2018-01-12T17:55:31.268Z,19.33
2018-01-12T17:57:58.975Z,15.97
2018-01-12T18:00:26.465Z,17.10
2018-01-12T18:02:53.973Z,15.37
2018-01-12T18:05:21.574Z,17.70
2018-01-12T18:07:49.065Z,15.70
2018-01-12T18:10:16.586Z,16.37
2018-01-12T18:12:44.124Z,16.10
2018-01-12T18:15:11.609Z,16.47
2018-01-12T18:17:39.922Z,16.93
2018-01-12T18:20:07.430Z,18.90
2018-01-12T18:22:35.682Z,20.73
2018-01-12T18:25:05.425Z,20.40
2018-01-12T18:27:33.072Z,19.10
2018-01-12T18:30:01.328Z,19.87
2018-01-12T18:32:28.800Z,20.30
2018-01-12T18:34:56.338Z,20.20
2018-01-12T18:37:23.842Z,21.50
2018-01-12T18:39:51.463Z,18.10
2018-01-12T18:42:19.013Z,20.90
2018-01-12T18:44:46.513Z,22.00
2018-01-12T18:47:14.068Z,20.00
2018-01-12T18:49:42.382Z,21.93
2018-01-12T18:52:09.861Z,20.43
2018-01-12T18:54:37.361Z,20.40
2018-01-12T18:57:05.620Z,20.07
2018-01-12T18:59:33.106Z,20.20
2018-01-12T19:02:00.621Z,17.70
2018-01-12T19:04:28.130Z,18.90
2018-01-12T19:06:55.608Z,22.57
2018-01-12T19:09:23.554Z,20.93
2018-01-12T19:11:51.086Z,19.63
2018-01-12T19:14:18.850Z,21.03
2018-01-12T19:16:47.241Z,21.60
2018-01-12T19:19:14.907Z,21.60
2018-01-12T19:21:42.498Z,19.73
2018-01-12T19:24:10.227Z,19.67
2018-01-12T19:26:37.858Z,18.60
2018-01-12T19:29:05.389Z,20.67
2018-01-12T19:31:32.929Z,21.63
2018-01-12T19:34:00.535Z,20.33
2018-01-12T19:36:29.022Z,22.57
2018-01-12T19:38:56.717Z,19.40
2018-01-12T19:41:26.502Z,21.60
2018-01-12T19:43:54.105Z,22.17
2018-01-12T19:46:22.466Z,22.17
2018-01-12T19:48:50.043Z,24.03
2018-01-12T19:51:17.660Z,18.03
2018-01-12T19:53:45.269Z,20.90
2018-01-12T19:56:12.838Z,20.60
2018-01-12T19:58:40.556Z,19.83
2018-01-12T20:01:08.352Z,19.10
2018-01-12T20:03:36.001Z,21.60
2018-01-12T20:06:03.601Z,22.53
2018-01-12T20:08:31.181Z,18.00
2018-01-12T20:11:00.595Z,19.20
2018-01-12T20:13:43.693Z,20.50
2018-01-12T20:16:18.300Z,19.77
2018-01-12T20:18:46.238Z,16.50
2018-01-12T20:21:13.810Z,16.23
2018-01-12T20:23:41.346Z,17.30
2018-01-12T20:26:09.696Z,15.10
2018-01-12T20:28:37.217Z,16.77
2018-01-12T20:31:04.780Z,15.30
2018-01-12T20:33:32.331Z,15.60
2018-01-12T20:35:59.863Z,16.83
2018-01-12T20:38:28.235Z,14.27
2018-01-12T20:40:56.570Z,15.80
2018-01-12T20:43:24.086Z,17.47
2018-01-12T20:45:51.713Z,15.50
2018-01-12T20:48:19.262Z,13.60
2018-01-12T20:50:46.794Z,16.03
2018-01-12T20:53:14.389Z,15.33
2018-01-12T20:55:41.933Z,15.53
2018-01-12T20:58:09.492Z,14.53
2018-01-12T21:00:37.057Z,15.10
2018-01-12T21:03:04.657Z,14.73
2018-01-12T21:05:32.384Z,13.83
2018-01-12T21:08:00.136Z,13.73
2018-01-12T21:10:28.238Z,14.20
2018-01-12T21:12:56.550Z,14.20
2018-01-12T21:15:24.111Z,14.10
2018-01-12T21:17:51.645Z,13.40
2018-01-12T21:20:19.994Z,14.87
2018-01-12T21:22:47.536Z,14.43
2018-01-12T21:25:15.151Z,13.07
2018-01-12T21:27:42.755Z,12.40
2018-01-12T21:30:10.309Z,14.40
2018-01-12T21:32:37.890Z,13.57
2018-01-12T21:35:05.480Z,13.47
2018-01-12T21:37:33.776Z,12.00
2018-01-12T21:40:01.324Z,14.33
2018-01-12T21:42:29.618Z,11.23
2018-01-12T21:44:57.181Z,12.50
2018-01-12T21:47:24.788Z,13.50
2018-01-12T21:49:53.066Z,12.23
2018-01-12T21:52:20.652Z,11.50
2018-01-12T21:54:48.957Z,12.00
2018-01-12T21:57:16.525Z,10.67
2018-01-12T21:59:44.062Z,11.80
2018-01-12T22:02:12.425Z,10.90
2018-01-12T22:04:40.739Z,10.47
2018-01-12T22:07:08.252Z,9.50
2018-01-12T22:09:36.542Z,10.23
2018-01-12T22:12:04.839Z,9.97
2018-01-12T22:14:32.421Z,10.07
2018-01-12T22:16:59.960Z,9.83
2018-01-12T22:19:27.514Z,10.80
2018-01-12T22:21:55.050Z,11.03
2018-01-12T22:24:23.365Z,10.43
2018-01-12T22:26:50.886Z,11.70
2018-01-12T22:29:19.247Z,10.90
2018-01-12T22:31:46.808Z,11.93
2018-01-12T22:34:14.391Z,13.00
2018-01-12T22:36:42.728Z,13.40
2018-01-12T22:39:10.271Z,11.63
2018-01-12T22:41:37.867Z,11.80
2018-01-12T22:44:05.396Z,10.87
2018-01-12T22:46:33.049Z,11.33
2018-01-12T22:49:00.600Z,10.57
2018-01-12T22:51:28.130Z,11.60
2018-01-12T22:53:56.428Z,11.50
2018-01-12T22:56:23.957Z,9.93
2018-01-12T22:58:52.264Z,9.10
2018-01-12T23:01:19.775Z,11.93
2018-01-12T23:03:47.365Z,11.23
2018-01-12T23:06:15.712Z,11.50
2018-01-12T23:08:43.257Z,11.03
2018-01-12T23:11:10.867Z,11.57
2018-01-12T23:13:38.417Z,9.60
2018-01-12T23:16:07.181Z,8.93
2018-01-12T23:18:34.849Z,10.50
2018-01-12T23:21:02.431Z,11.00
2018-01-12T23:23:32.360Z,11.83
2018-01-12T23:25:59.916Z,12.03
2018-01-12T23:28:27.477Z,9.57
2018-01-12T23:30:55.091Z,10.03
2018-01-12T23:33:23.370Z,9.20
2018-01-12T23:35:50.937Z,11.77
2018-01-12T23:38:18.469Z,11.30
2018-01-12T23:40:45.966Z,9.93
2018-01-12T23:43:14.311Z,11.30
2018-01-12T23:45:41.866Z,10.43
2018-01-12T23:48:09.447Z,11.90
2018-01-12T23:50:36.977Z,10.60
2018-01-12T23:53:04.487Z,11.33
2018-01-12T23:55:32.793Z,11.20
2018-01-12T23:58:00.320Z,10.40
